Terminal Aerodrome Forecast
Issued by NWS Wichita, KS

Home | Current Version | Previous Version | Graphics & Text | Print | Product List | Glossary On
Versions: 1 2 3 4 5 6 7 8 9 10 11 12 13 14 15 16 17 18 19
898
FTUS43 KICT 230227 AAD
TAFICT
TAF AMD
KICT 230227Z 2302/2324 35015KT P6SM VCTS SCT080CB
     FM230400 02010KT P6SM SCT250
     FM230700 08005KT P6SM SCT100 BKN250=

USA.gov is the U.S. government's official web portal to all federal, state and local government web resources and services.